Terminal Aerodrome Forecast
Issued by NWS

Home | Current Version | Previous Version | Text Only | Print | Product List | Glossary Off
Versions: 1 2 3 4 5 6 7 8 9 10 11 12 13 14 15 16 17 18 19 20 21 22 23 24 25 26

000
FTUS41 KCLE 170200 AAA
TAFFDY
TAF AMD
KFDY 170201Z 1702/1724 24015G25KT P6SM OVC008
      TEMPO 1702/1705 4SM -SHRA
     FM170600 25015G25KT P6SM OVC015
     FM171300 27015G25KT P6SM SCT015 OVC025
     FM172200 27012G22KT P6SM OVC035=

USA.gov is the U.S. government's official web portal to all federal, state and local government web resources and services.